createdAt,value
2023-11-15T00:01:26.216Z,9.80
2023-11-15T00:03:53.947Z,6.43
2023-11-15T00:06:22.039Z,5.90
2023-11-15T00:08:49.811Z,7.53
2023-11-15T00:11:19.112Z,7.57
2023-11-15T00:13:47.001Z,9.97
2023-11-15T00:16:16.825Z,6.37
2023-11-15T00:18:44.812Z,7.27
2023-11-15T00:21:12.796Z,8.30
2023-11-15T00:23:40.528Z,5.67
2023-11-15T00:26:08.407Z,6.97
2023-11-15T00:28:40.190Z,6.37
2023-11-15T00:31:08.011Z,5.23
2023-11-15T00:33:38.375Z,8.13
2023-11-15T00:36:06.857Z,4.47
2023-11-15T00:38:35.805Z,5.43
2023-11-15T00:41:04.840Z,6.33
2023-11-15T00:43:33.088Z,7.63
2023-11-15T00:46:00.891Z,6.47
2023-11-15T00:48:29.004Z,9.77
2023-11-15T00:50:58.098Z,8.80
2023-11-15T00:53:26.889Z,12.40
2023-11-15T00:55:54.615Z,10.53
2023-11-15T00:58:23.305Z,8.40
2023-11-15T01:00:56.128Z,11.80
2023-11-15T01:03:28.231Z,7.60
2023-11-15T01:05:56.881Z,14.97
2023-11-15T01:08:26.010Z,14.27
2023-11-15T01:10:53.838Z,15.70
2023-11-15T01:13:22.474Z,14.93
2023-11-15T01:15:52.007Z,16.40
2023-11-15T01:18:19.747Z,12.77
2023-11-15T01:20:47.608Z,13.23
2023-11-15T01:23:16.341Z,17.00
2023-11-15T01:25:45.587Z,13.23
2023-11-15T01:28:13.267Z,14.13
2023-11-15T01:30:40.890Z,14.53
2023-11-15T01:33:08.755Z,20.80
2023-11-15T01:35:37.189Z,13.47
2023-11-15T01:38:04.957Z,20.50
2023-11-15T01:40:35.417Z,16.50
2023-11-15T01:43:04.616Z,14.77
2023-11-15T01:45:32.468Z,16.27
2023-11-15T01:48:01.679Z,19.07
2023-11-15T01:50:29.882Z,16.47
2023-11-15T01:52:58.231Z,16.30
2023-11-15T01:55:25.976Z,16.47
2023-11-15T01:57:54.919Z,14.13
2023-11-15T02:00:24.655Z,13.43
2023-11-15T02:02:52.353Z,18.63
2023-11-15T02:05:20.160Z,19.67
2023-11-15T02:07:48.136Z,17.97
2023-11-15T02:10:16.190Z,19.27
2023-11-15T02:12:44.404Z,15.50
2023-11-15T02:15:15.031Z,16.47
2023-11-15T02:17:44.511Z,16.27
2023-11-15T02:20:14.148Z,13.70
2023-11-15T02:22:46.832Z,16.67
2023-11-15T02:25:16.219Z,13.57
2023-11-15T02:27:44.006Z,14.20
2023-11-15T02:30:12.421Z,14.87
2023-11-15T02:32:41.091Z,17.47
2023-11-15T02:39:02.145Z,16.97
2023-11-15T02:41:32.608Z,17.17
2023-11-15T02:44:00.326Z,17.30
2023-11-15T02:46:27.998Z,16.00
2023-11-15T02:48:55.796Z,16.40
2023-11-15T02:51:23.502Z,17.90
2023-11-15T02:53:51.201Z,14.70
2023-11-15T02:56:19.595Z,12.10
2023-11-15T02:58:48.926Z,15.47
2023-11-15T03:01:17.463Z,17.10
2023-11-15T03:03:45.544Z,15.17
2023-11-15T03:06:13.601Z,15.60
2023-11-15T03:08:41.289Z,15.57
2023-11-15T03:11:09.568Z,19.07
2023-11-15T03:13:37.355Z,14.70
2023-11-15T03:16:07.082Z,19.30
2023-11-15T03:18:35.039Z,18.53
2023-11-15T03:21:04.019Z,15.43
2023-11-15T03:23:31.787Z,17.27
2023-11-15T03:26:00.114Z,20.10
2023-11-15T03:28:27.845Z,18.47
2023-11-15T03:30:55.467Z,15.23
2023-11-15T03:33:25.059Z,12.57
2023-11-15T03:35:52.841Z,15.43
2023-11-15T03:38:20.550Z,17.60
2023-11-15T03:40:48.880Z,13.47
2023-11-15T03:43:16.483Z,16.30
2023-11-15T03:45:44.286Z,24.43
2023-11-15T03:48:12.323Z,16.53
2023-11-15T03:50:41.578Z,13.67
2023-11-15T03:53:09.464Z,13.77
2023-11-15T03:55:37.252Z,16.17
2023-11-15T03:58:05.253Z,20.13
2023-11-15T04:00:32.910Z,16.10
2023-11-15T04:03:01.190Z,15.87
2023-11-15T04:05:30.572Z,21.73
2023-11-15T04:08:00.114Z,15.50
2023-11-15T04:10:27.899Z,16.47
2023-11-15T04:12:55.849Z,20.17
2023-11-15T04:15:24.525Z,20.60
2023-11-15T04:17:52.483Z,20.17
2023-11-15T04:20:20.119Z,15.73
2023-11-15T04:22:47.799Z,16.00
2023-11-15T04:25:17.784Z,12.77
2023-11-15T04:27:45.438Z,15.03
2023-11-15T04:30:13.825Z,15.97
2023-11-15T04:32:41.627Z,20.53
2023-11-15T04:35:09.525Z,17.73
2023-11-15T04:37:37.251Z,14.27
2023-11-15T04:40:07.688Z,16.00
2023-11-15T04:42:36.832Z,15.90
2023-11-15T04:45:04.824Z,14.83
2023-11-15T04:47:32.864Z,21.77
2023-11-15T04:50:01.525Z,22.03
2023-11-15T04:52:29.157Z,20.83
2023-11-15T04:54:56.858Z,19.83
2023-11-15T04:57:26.976Z,18.57
2023-11-15T04:59:57.003Z,16.77
2023-11-15T05:02:25.206Z,18.30
2023-11-15T05:04:53.713Z,18.97
2023-11-15T05:07:23.680Z,14.10
2023-11-15T05:09:51.504Z,21.30
2023-11-15T05:12:19.101Z,15.57
2023-11-15T05:14:47.456Z,16.87
2023-11-15T05:17:16.689Z,18.90
2023-11-15T05:19:44.339Z,15.77
2023-11-15T05:22:12.115Z,18.50
2023-11-15T05:24:42.120Z,17.57
2023-11-15T05:27:10.951Z,12.87
2023-11-15T05:29:38.845Z,16.23
2023-11-15T05:32:06.709Z,14.67
2023-11-15T05:34:35.740Z,20.90
2023-11-15T05:37:03.791Z,17.33
2023-11-15T05:39:32.429Z,16.87
2023-11-15T05:42:00.835Z,22.37
2023-11-15T05:44:29.904Z,13.13
2023-11-15T05:46:57.571Z,14.40
2023-11-15T05:49:25.204Z,22.67
2023-11-15T05:51:54.860Z,19.33
2023-11-15T05:54:22.570Z,16.47
2023-11-15T05:56:50.360Z,17.93
2023-11-15T05:59:18.021Z,12.13
2023-11-15T06:01:46.073Z,12.23
2023-11-15T06:04:13.758Z,11.77
2023-11-15T06:06:41.757Z,10.27
2023-11-15T06:09:14.835Z,17.10
2023-11-15T06:11:43.452Z,12.43
2023-11-15T06:14:11.379Z,12.20
2023-11-15T06:16:39.709Z,16.00
2023-11-15T06:19:08.825Z,10.13
2023-11-15T06:21:36.588Z,18.77
2023-11-15T06:24:05.808Z,13.53
2023-11-15T06:26:38.711Z,13.33
2023-11-15T06:29:06.646Z,15.43
2023-11-15T06:31:37.233Z,11.90
2023-11-15T06:34:06.475Z,15.70
2023-11-15T06:36:36.043Z,14.83
2023-11-15T06:39:06.789Z,15.13
2023-11-15T06:41:35.698Z,14.27
2023-11-15T06:44:06.965Z,15.00
2023-11-15T06:46:35.681Z,17.97
2023-11-15T06:49:03.385Z,15.20
2023-11-15T07:06:41.457Z,22.17
2023-11-15T07:09:10.421Z,11.63
2023-11-15T07:11:38.182Z,14.53
2023-11-15T07:14:11.622Z,15.70
2023-11-15T07:16:39.386Z,13.20
2023-11-15T07:19:07.520Z,14.50
2023-11-15T07:21:35.181Z,16.97
2023-11-15T07:24:04.372Z,16.73
2023-11-15T07:26:36.426Z,16.13
2023-11-15T07:29:06.002Z,15.70
2023-11-15T07:31:33.679Z,19.50
2023-11-15T07:34:02.233Z,16.43
2023-11-15T07:36:30.667Z,18.20
2023-11-15T07:38:59.073Z,16.97
2023-11-15T07:41:28.534Z,12.03
2023-11-15T07:43:56.542Z,14.53
2023-11-15T07:46:25.835Z,15.13
2023-11-15T07:48:53.942Z,14.97
2023-11-15T07:51:21.591Z,15.60
2023-11-15T07:53:50.815Z,11.63
2023-11-15T07:56:20.199Z,12.53
2023-11-15T07:58:50.766Z,11.37
2023-11-15T08:01:18.466Z,18.47
2023-11-15T08:03:46.391Z,15.17
2023-11-15T08:06:15.875Z,16.63
2023-11-15T08:08:44.017Z,15.23
2023-11-15T08:11:12.685Z,18.03
2023-11-15T08:13:40.535Z,16.17
2023-11-15T08:16:13.796Z,14.57
2023-11-15T08:18:43.361Z,14.13
2023-11-15T08:21:11.616Z,14.03
2023-11-15T08:23:39.326Z,14.10
2023-11-15T08:26:08.692Z,15.13
2023-11-15T08:28:36.266Z,20.40
2023-11-15T08:31:04.153Z,16.50
2023-11-15T08:33:33.326Z,15.57
2023-11-15T08:36:01.100Z,12.27
2023-11-15T08:38:28.842Z,20.73
2023-11-15T08:40:57.010Z,17.57
2023-11-15T08:43:24.740Z,15.37
2023-11-15T08:45:52.639Z,17.03
2023-11-15T08:48:21.323Z,19.77
2023-11-15T08:50:50.532Z,14.30
2023-11-15T08:53:19.864Z,16.07
2023-11-15T08:55:47.498Z,14.87
2023-11-15T08:58:15.706Z,13.80
2023-11-15T09:00:45.367Z,16.43
2023-11-15T09:03:13.234Z,10.67
2023-11-15T09:05:45.151Z,14.30
2023-11-15T09:08:15.275Z,12.13
2023-11-15T09:10:43.198Z,11.47
2023-11-15T09:13:10.931Z,18.60
2023-11-15T09:15:38.822Z,15.50
2023-11-15T09:18:07.665Z,21.70
2023-11-15T09:20:36.026Z,15.83
2023-11-15T09:23:10.889Z,14.53
2023-11-15T09:25:45.241Z,12.80
2023-11-15T09:28:13.595Z,15.13
2023-11-15T09:30:44.021Z,16.47
2023-11-15T09:33:15.133Z,12.07
2023-11-15T09:35:52.070Z,11.17
2023-11-15T09:38:22.985Z,13.07
2023-11-15T10:12:02.500Z,12.70
2023-11-15T10:18:33.528Z,11.10
2023-11-15T10:21:08.669Z,13.50
2023-11-15T10:23:38.978Z,12.07
2023-11-15T10:26:10.172Z,12.70
2023-11-15T10:28:40.790Z,12.33
2023-11-15T10:31:13.814Z,11.87
2023-11-15T10:33:44.638Z,10.57
2023-11-15T10:36:17.657Z,12.83
2023-11-15T10:38:46.415Z,15.53
2023-11-15T10:41:18.844Z,13.90
2023-11-15T10:43:50.963Z,11.60
2023-11-15T10:46:20.106Z,9.87
2023-11-15T10:48:50.849Z,11.53
2023-11-15T10:51:23.054Z,15.23
2023-11-15T10:53:51.490Z,14.70
2023-11-15T10:56:20.668Z,7.30
2023-11-15T10:58:51.333Z,12.97
2023-11-15T11:01:19.658Z,13.37
2023-11-15T11:03:50.342Z,15.57
2023-11-15T11:06:21.538Z,14.50
2023-11-15T11:08:55.049Z,11.33
2023-11-15T11:11:24.481Z,16.20
2023-11-15T11:14:10.808Z,17.07
2023-11-15T11:16:41.382Z,11.63
2023-11-15T11:19:10.554Z,12.93
2023-11-15T11:21:57.037Z,11.70
2023-11-15T11:24:24.853Z,10.53
2023-11-15T11:26:53.699Z,9.43
2023-11-15T11:29:21.348Z,14.83
2023-11-15T11:32:18.289Z,11.67
2023-11-15T11:35:08.764Z,10.03
2023-11-15T11:37:41.247Z,13.63
2023-11-15T11:40:10.382Z,13.90
2023-11-15T11:42:38.075Z,11.23
2023-11-15T11:45:06.795Z,10.53
2023-11-15T11:47:41.773Z,12.17
2023-11-15T11:50:10.712Z,10.87
2023-11-15T11:52:40.750Z,11.93
2023-11-15T11:55:09.604Z,17.23
2023-11-15T11:57:37.218Z,10.87
2023-11-15T12:00:13.400Z,11.40
2023-11-15T12:02:44.174Z,11.67
2023-11-15T12:05:13.121Z,10.83
2023-11-15T12:07:43.681Z,9.67
2023-11-15T12:10:13.749Z,12.07
2023-11-15T12:12:42.025Z,6.43
2023-11-15T12:15:10.009Z,12.40
2023-11-15T12:17:40.883Z,8.07
2023-11-15T12:20:11.762Z,7.03
2023-11-15T12:22:41.659Z,8.93
2023-11-15T12:25:10.746Z,10.17
2023-11-15T12:27:39.677Z,11.17
2023-11-15T12:30:08.704Z,14.67
2023-11-15T12:32:37.711Z,15.00
2023-11-15T12:35:06.633Z,12.53
2023-11-15T12:37:36.094Z,9.57
2023-11-15T12:40:03.973Z,12.17
2023-11-15T12:42:32.277Z,11.17
2023-11-15T12:45:00.840Z,8.80
2023-11-15T12:47:28.633Z,12.17
2023-11-15T12:49:56.424Z,8.97
2023-11-15T12:52:35.178Z,11.20
2023-11-15T12:55:06.332Z,10.93
2023-11-15T12:57:50.891Z,8.60
2023-11-15T13:00:31.532Z,12.70
2023-11-15T13:02:59.612Z,7.83
2023-11-15T13:05:27.582Z,11.07
2023-11-15T13:07:55.204Z,7.70
2023-11-15T13:10:24.220Z,10.50
2023-11-15T13:12:51.838Z,9.57
2023-11-15T13:15:20.008Z,13.20
2023-11-15T13:17:47.760Z,8.90
2023-11-15T13:20:16.728Z,8.70
2023-11-15T13:22:45.528Z,6.43
2023-11-15T13:25:13.293Z,8.57
2023-11-15T13:27:42.375Z,14.00
2023-11-15T13:30:10.488Z,7.87
2023-11-15T13:32:38.188Z,8.00
2023-11-15T13:35:08.173Z,16.30
2023-11-15T13:37:36.347Z,8.50
2023-11-15T13:40:05.113Z,6.57
2023-11-15T13:42:34.202Z,7.97
2023-11-15T13:45:04.272Z,6.90
2023-11-15T13:47:32.028Z,7.50
2023-11-15T13:50:00.914Z,7.13
2023-11-15T13:52:29.017Z,11.90
2023-11-15T13:54:56.814Z,10.77
2023-11-15T13:57:24.577Z,11.07
2023-11-15T13:59:52.238Z,8.40
2023-11-15T14:02:24.937Z,6.67
2023-11-15T14:04:52.643Z,10.03
2023-11-15T14:07:20.451Z,7.87
2023-11-15T14:09:48.204Z,8.23
2023-11-15T14:12:15.876Z,9.73
2023-11-15T14:14:44.268Z,5.70
2023-11-15T14:17:12.485Z,8.80
2023-11-15T14:19:41.572Z,10.27
2023-11-15T14:22:09.215Z,13.30
2023-11-15T14:24:36.909Z,7.40
2023-11-15T14:27:05.265Z,9.00
2023-11-15T14:29:33.053Z,7.73
2023-11-15T14:32:02.095Z,7.50
2023-11-15T14:34:30.470Z,8.97
2023-11-15T14:36:59.633Z,7.93
2023-11-15T14:39:31.463Z,8.43
2023-11-15T14:42:00.285Z,10.57
2023-11-15T14:44:28.043Z,4.87
2023-11-15T14:46:55.663Z,7.63
2023-11-15T14:49:23.585Z,7.07
2023-11-15T14:51:59.912Z,9.10
2023-11-15T14:54:31.298Z,7.33
2023-11-15T14:56:59.572Z,6.23
2023-11-15T14:59:27.606Z,7.23
2023-11-15T15:01:55.406Z,9.43
2023-11-15T15:04:24.466Z,4.70
2023-11-15T15:06:52.516Z,5.60
2023-11-15T15:09:20.553Z,8.97
2023-11-15T15:11:49.738Z,5.90
2023-11-15T15:14:18.504Z,9.57
2023-11-15T15:16:46.719Z,5.30
2023-11-15T15:19:14.410Z,8.97
2023-11-15T15:21:42.883Z,4.97
2023-11-15T15:24:11.354Z,7.53
2023-11-15T15:26:39.051Z,5.83
2023-11-15T15:29:15.210Z,6.17
2023-11-15T15:31:49.693Z,5.73
2023-11-15T15:34:17.390Z,5.20
2023-11-15T15:36:46.008Z,7.07
2023-11-15T15:39:13.671Z,7.90
2023-11-15T15:41:41.418Z,7.30
2023-11-15T15:44:11.426Z,5.67
2023-11-15T15:46:39.111Z,4.53
2023-11-15T15:49:06.974Z,5.87
2023-11-15T15:51:34.731Z,4.90
2023-11-15T15:54:02.429Z,6.43
2023-11-15T15:56:30.572Z,3.67
2023-11-15T15:58:58.282Z,8.90
2023-11-15T16:01:30.582Z,6.50
2023-11-15T16:03:58.337Z,8.63
2023-11-15T16:06:26.043Z,7.57
2023-11-15T16:08:53.706Z,5.40
2023-11-15T16:11:22.273Z,10.30
2023-11-15T16:13:50.138Z,6.33
2023-11-15T16:16:18.182Z,4.27
2023-11-15T16:18:47.685Z,9.73
2023-11-15T16:21:15.357Z,6.13
2023-11-15T16:23:43.218Z,9.10
2023-11-15T16:26:11.389Z,7.37
2023-11-15T16:28:38.965Z,8.27
2023-11-15T16:31:07.245Z,5.13
2023-11-15T16:33:35.674Z,6.10
2023-11-15T16:36:05.054Z,6.97
2023-11-15T16:38:32.711Z,5.97
2023-11-15T16:41:00.511Z,6.70
2023-11-15T16:43:28.663Z,7.30
2023-11-15T16:45:56.298Z,9.30
2023-11-15T16:48:24.104Z,6.57
2023-11-15T16:50:52.132Z,6.17
2023-11-15T16:53:21.348Z,5.67
2023-11-15T16:55:49.004Z,6.03
2023-11-15T16:58:16.866Z,6.17
2023-11-15T17:00:46.535Z,8.10
2023-11-15T17:03:14.307Z,8.33
2023-11-15T17:05:42.000Z,9.83
2023-11-15T17:08:09.797Z,9.83
2023-11-15T17:10:38.782Z,8.77
2023-11-15T17:13:06.522Z,7.73
2023-11-15T17:15:34.460Z,12.40
2023-11-15T17:18:03.179Z,9.17
2023-11-15T17:20:30.848Z,9.97
2023-11-15T17:22:58.599Z,14.20
2023-11-15T17:25:27.129Z,9.17
2023-11-15T17:27:57.796Z,16.60
2023-11-15T17:30:26.636Z,12.23
2023-11-15T17:32:54.376Z,14.27
2023-11-15T17:35:22.443Z,10.10
2023-11-15T17:37:51.753Z,8.83
2023-11-15T17:40:20.787Z,13.10
2023-11-15T17:42:48.651Z,11.63
2023-11-15T17:45:19.723Z,11.30
2023-11-15T17:47:47.690Z,11.83
2023-11-15T17:50:15.408Z,11.87
2023-11-15T17:52:44.547Z,10.53
2023-11-15T17:55:15.097Z,7.40
2023-11-15T17:57:44.649Z,9.33
2023-11-15T18:00:14.047Z,6.50
2023-11-15T18:02:45.185Z,7.50
2023-11-15T18:05:13.805Z,6.10
2023-11-15T18:07:41.801Z,10.60
2023-11-15T18:10:10.248Z,7.60
2023-11-15T18:12:38.999Z,9.50
2023-11-15T18:15:07.736Z,9.73
2023-11-15T18:17:36.671Z,8.40
2023-11-15T18:20:08.976Z,12.10
2023-11-15T18:22:36.499Z,8.93
2023-11-15T18:25:05.370Z,9.20
2023-11-15T18:27:33.820Z,5.23
2023-11-15T18:30:03.480Z,8.80
2023-11-15T18:32:31.220Z,9.17
2023-11-15T18:34:59.205Z,15.03
2023-11-15T18:37:28.277Z,10.87
2023-11-15T18:39:56.004Z,7.83
2023-11-15T18:42:23.610Z,8.40
2023-11-15T18:44:54.041Z,10.70
2023-11-15T18:47:21.774Z,10.00
2023-11-15T18:49:50.101Z,9.47
2023-11-15T18:52:18.359Z,8.20
2023-11-15T18:54:47.941Z,9.63
2023-11-15T18:57:16.989Z,13.07
2023-11-15T18:59:44.810Z,15.60
2023-11-15T19:02:12.775Z,9.73
2023-11-15T19:04:40.525Z,10.53
2023-11-15T19:07:08.555Z,9.20
2023-11-15T19:09:37.749Z,9.23
2023-11-15T19:12:07.775Z,9.07
2023-11-15T19:14:37.358Z,5.23
2023-11-15T19:17:07.417Z,8.63
2023-11-15T19:19:36.522Z,13.30
2023-11-15T19:22:04.368Z,6.67
2023-11-15T19:24:32.103Z,13.10
2023-11-15T19:26:59.787Z,9.37
2023-11-15T19:29:29.160Z,9.70
2023-11-15T19:31:57.434Z,11.33
2023-11-15T19:34:26.720Z,11.83
2023-11-15T19:36:54.793Z,8.47
2023-11-15T19:39:22.712Z,9.67
2023-11-15T19:41:51.486Z,8.80
2023-11-15T19:44:19.296Z,7.63
2023-11-15T19:46:48.543Z,7.60
2023-11-15T19:49:18.933Z,11.23
2023-11-15T19:51:50.329Z,11.47
2023-11-15T19:54:19.151Z,8.30
2023-11-15T19:56:46.935Z,9.77
2023-11-15T19:59:14.634Z,10.00
2023-11-15T20:01:42.732Z,9.17
2023-11-15T20:04:12.025Z,9.80
2023-11-15T20:06:39.859Z,11.37
2023-11-15T20:09:07.678Z,7.33
2023-11-15T20:11:35.388Z,9.77
2023-11-15T20:14:03.224Z,13.40
2023-11-15T20:16:30.976Z,9.63
2023-11-15T20:18:59.152Z,8.60
2023-11-15T20:21:28.980Z,9.07
2023-11-15T20:23:56.990Z,11.70
2023-11-15T20:26:24.888Z,12.43
2023-11-15T20:28:53.453Z,12.17
2023-11-15T20:31:22.365Z,16.03
2023-11-15T20:33:50.430Z,6.80
2023-11-15T20:36:18.165Z,11.27
2023-11-15T20:38:47.241Z,8.33
2023-11-15T20:41:15.710Z,7.57
2023-11-15T20:43:43.399Z,8.73
2023-11-15T20:46:17.604Z,8.43
2023-11-15T20:48:47.693Z,8.97
2023-11-15T20:51:15.793Z,5.97
2023-11-15T20:53:43.711Z,10.20
2023-11-15T20:56:12.884Z,9.60
2023-11-15T20:58:41.403Z,8.43
2023-11-15T21:01:10.197Z,12.10
2023-11-15T21:03:38.165Z,9.33
2023-11-15T21:06:06.528Z,8.67
2023-11-15T21:08:35.940Z,8.83
2023-11-15T21:11:03.635Z,9.37
2023-11-15T21:13:32.767Z,7.87
2023-11-15T21:16:03.107Z,7.73
2023-11-15T21:18:30.855Z,10.67
2023-11-15T21:20:58.439Z,11.13
2023-11-15T21:23:26.588Z,9.67
2023-11-15T21:25:54.281Z,15.47
2023-11-15T21:28:22.209Z,7.17
2023-11-15T21:30:51.713Z,7.00
2023-11-15T21:33:19.441Z,10.97
2023-11-15T21:35:48.912Z,13.53
2023-11-15T21:38:18.916Z,11.40
2023-11-15T21:40:46.521Z,9.47
2023-11-15T21:43:14.142Z,11.93
2023-11-15T21:45:41.728Z,8.77
2023-11-15T21:48:11.646Z,7.90
2023-11-15T21:50:39.351Z,9.93
2023-11-15T21:53:07.961Z,8.93
2023-11-15T21:55:35.659Z,12.17
2023-11-15T21:58:07.900Z,9.93
2023-11-15T22:00:35.587Z,8.20
2023-11-15T22:03:03.576Z,7.73
2023-11-15T22:05:32.709Z,8.77
2023-11-15T22:08:00.950Z,10.07
2023-11-15T22:10:28.611Z,10.10
2023-11-15T22:12:56.218Z,14.67
2023-11-15T22:15:24.389Z,7.97
2023-11-15T22:17:52.138Z,9.03
2023-11-15T22:20:19.990Z,9.33
2023-11-15T22:22:49.175Z,8.70
2023-11-15T22:25:16.994Z,9.60
2023-11-15T22:27:44.606Z,9.43
2023-11-15T22:30:12.926Z,8.33
2023-11-15T22:32:41.132Z,11.83
2023-11-15T22:35:10.581Z,10.57
2023-11-15T22:37:38.296Z,12.03
2023-11-15T22:40:08.141Z,12.07
2023-11-15T22:42:36.339Z,7.93
2023-11-15T22:45:04.190Z,10.33
2023-11-15T22:47:31.878Z,13.27
2023-11-15T22:49:59.541Z,15.57
2023-11-15T22:52:27.278Z,11.67
2023-11-15T22:54:54.881Z,11.60
2023-11-15T22:57:23.995Z,9.00
2023-11-15T22:59:52.706Z,11.93
2023-11-15T23:02:21.186Z,10.70
2023-11-15T23:04:49.321Z,10.97
2023-11-15T23:07:21.400Z,11.53
2023-11-15T23:09:49.236Z,8.60
2023-11-15T23:12:17.097Z,13.17
2023-11-15T23:14:46.486Z,9.97
2023-11-15T23:17:14.171Z,11.00
2023-11-15T23:19:41.825Z,11.57
2023-11-15T23:22:09.648Z,14.00
2023-11-15T23:24:38.007Z,10.07
2023-11-15T23:27:06.181Z,9.90
2023-11-15T23:29:34.097Z,8.67
2023-11-15T23:32:03.167Z,9.43
2023-11-15T23:34:31.000Z,12.83
2023-11-15T23:36:58.620Z,9.37
2023-11-15T23:39:27.809Z,11.30
2023-11-15T23:41:55.557Z,13.30
2023-11-15T23:44:23.226Z,7.90
2023-11-15T23:46:52.584Z,9.57
2023-11-15T23:49:22.165Z,13.00
2023-11-15T23:51:49.850Z,10.93
2023-11-15T23:54:18.362Z,13.13
2023-11-15T23:56:46.005Z,7.63
2023-11-15T23:59:13.736Z,14.57
